sensor_id;sensor_type;location;lat;lon;timestamp;temperature;humidity
72380;SHT30;60354;47.798;12.472;2022-09-09T00:10:04;15.80;77.96
72380;SHT30;60354;47.798;12.472;2022-09-09T00:12:51;15.82;77.87
72380;SHT30;60354;47.798;12.472;2022-09-09T00:15:23;15.82;78.02
72380;SHT30;60354;47.798;12.472;2022-09-09T00:18:02;15.83;77.72
72380;SHT30;60354;47.798;12.472;2022-09-09T00:23:21;15.87;77.78
72380;SHT30;60354;47.798;12.472;2022-09-09T00:25:57;15.89;77.78
72380;SHT30;60354;47.798;12.472;2022-09-09T00:28:26;15.85;78.19
72380;SHT30;60354;47.798;12.472;2022-09-09T00:30:53;15.82;78.99
72380;SHT30;60354;47.798;12.472;2022-09-09T00:33:23;15.86;78.95
72380;SHT30;60354;47.798;12.472;2022-09-09T00:35:56;15.77;79.22
72380;SHT30;60354;47.798;12.472;2022-09-09T00:38:35;15.74;79.42
72380;SHT30;60354;47.798;12.472;2022-09-09T00:41:14;15.69;79.19
72380;SHT30;60354;47.798;12.472;2022-09-09T00:43:49;15.69;79.25
72380;SHT30;60354;47.798;12.472;2022-09-09T00:55:03;15.66;78.96
72380;SHT30;60354;47.798;12.472;2022-09-09T00:57:32;15.70;78.27
72380;SHT30;60354;47.798;12.472;2022-09-09T01:07:47;15.82;77.54
72380;SHT30;60354;47.798;12.472;2022-09-09T01:10:28;15.80;77.71
72380;SHT30;60354;47.798;12.472;2022-09-09T01:12:58;15.77;77.83
72380;SHT30;60354;47.798;12.472;2022-09-09T01:15:29;15.82;77.85
72380;SHT30;60354;47.798;12.472;2022-09-09T01:18:02;15.87;77.33
72380;SHT30;60354;47.798;12.472;2022-09-09T01:23:24;15.80;77.95
72380;SHT30;60354;47.798;12.472;2022-09-09T01:26:52;15.80;77.90
72380;SHT30;60354;47.798;12.472;2022-09-09T01:29:24;15.76;77.88
72380;SHT30;60354;47.798;12.472;2022-09-09T01:31:57;15.79;77.52
72380;SHT30;60354;47.798;12.472;2022-09-09T01:34:28;15.80;77.35
72380;SHT30;60354;47.798;12.472;2022-09-09T01:37:05;15.86;76.71
72380;SHT30;60354;47.798;12.472;2022-09-09T01:39:37;15.90;76.45
72380;SHT30;60354;47.798;12.472;2022-09-09T01:42:10;15.93;76.25
72380;SHT30;60354;47.798;12.472;2022-09-09T01:44:37;15.97;76.44
72380;SHT30;60354;47.798;12.472;2022-09-09T01:47:04;15.97;76.13
72380;SHT30;60354;47.798;12.472;2022-09-09T01:49:31;15.98;76.55
72380;SHT30;60354;47.798;12.472;2022-09-09T01:52:00;15.96;76.81
72380;SHT30;60354;47.798;12.472;2022-09-09T01:54:32;15.90;77.08
72380;SHT30;60354;47.798;12.472;2022-09-09T02:08:14;15.90;77.94
72380;SHT30;60354;47.798;12.472;2022-09-09T02:13:32;15.80;78.10
72380;SHT30;60354;47.798;12.472;2022-09-09T02:16:48;15.79;78.45
72380;SHT30;60354;47.798;12.472;2022-09-09T02:18:53;15.74;78.37
72380;SHT30;60354;47.798;12.472;2022-09-09T02:21:30;15.74;78.16
72380;SHT30;60354;47.798;12.472;2022-09-09T02:23:58;15.80;77.78
72380;SHT30;60354;47.798;12.472;2022-09-09T02:26:27;15.79;77.56
72380;SHT30;60354;47.798;12.472;2022-09-09T02:29:01;15.82;77.18
72380;SHT30;60354;47.798;12.472;2022-09-09T02:31:28;15.83;76.68
72380;SHT30;60354;47.798;12.472;2022-09-09T02:34:01;15.86;76.71
72380;SHT30;60354;47.798;12.472;2022-09-09T02:36:31;15.94;77.22
72380;SHT30;60354;47.798;12.472;2022-09-09T02:38:59;15.96;76.53
72380;SHT30;60354;47.798;12.472;2022-09-09T02:41:34;15.93;77.79
72380;SHT30;60354;47.798;12.472;2022-09-09T02:44:00;15.96;77.49
72380;SHT30;60354;47.798;12.472;2022-09-09T02:49:40;15.91;77.70
72380;SHT30;60354;47.798;12.472;2022-09-09T02:52:20;15.86;77.76
72380;SHT30;60354;47.798;12.472;2022-09-09T02:54:49;15.79;78.82
72380;SHT30;60354;47.798;12.472;2022-09-09T02:57:22;15.76;78.85
72380;SHT30;60354;47.798;12.472;2022-09-09T02:59:50;15.79;78.69
72380;SHT30;60354;47.798;12.472;2022-09-09T03:02:18;15.76;78.86
72380;SHT30;60354;47.798;12.472;2022-09-09T03:04:48;15.74;78.54
72380;SHT30;60354;47.798;12.472;2022-09-09T03:07:18;15.73;78.72
72380;SHT30;60354;47.798;12.472;2022-09-09T03:09:47;15.74;79.06
72380;SHT30;60354;47.798;12.472;2022-09-09T03:12:12;15.74;78.49
72380;SHT30;60354;47.798;12.472;2022-09-09T03:14:39;15.65;78.77
72380;SHT30;60354;47.798;12.472;2022-09-09T03:17:06;15.63;78.19
72380;SHT30;60354;47.798;12.472;2022-09-09T03:19:36;15.65;78.43
72380;SHT30;60354;47.798;12.472;2022-09-09T03:22:03;15.65;78.42
72380;SHT30;60354;47.798;12.472;2022-09-09T03:24:31;15.59;78.40
72380;SHT30;60354;47.798;12.472;2022-09-09T03:26:57;15.60;78.59
72380;SHT30;60354;47.798;12.472;2022-09-09T03:29:23;15.55;79.05
72380;SHT30;60354;47.798;12.472;2022-09-09T03:31:51;15.46;79.64
72380;SHT30;60354;47.798;12.472;2022-09-09T03:34:17;15.42;79.86
72380;SHT30;60354;47.798;12.472;2022-09-09T03:36:42;15.40;80.67
72380;SHT30;60354;47.798;12.472;2022-09-09T03:39:09;15.38;80.74
72380;SHT30;60354;47.798;12.472;2022-09-09T03:41:35;15.29;81.01
72380;SHT30;60354;47.798;12.472;2022-09-09T03:44:03;15.25;81.00
72380;SHT30;60354;47.798;12.472;2022-09-09T03:46:33;15.19;81.02
72380;SHT30;60354;47.798;12.472;2022-09-09T03:48:59;15.16;81.77
72380;SHT30;60354;47.798;12.472;2022-09-09T03:51:26;15.16;82.27
72380;SHT30;60354;47.798;12.472;2022-09-09T03:53:52;15.16;82.16
72380;SHT30;60354;47.798;12.472;2022-09-09T03:56:20;15.16;81.88
72380;SHT30;60354;47.798;12.472;2022-09-09T03:58:47;15.16;81.48
72380;SHT30;60354;47.798;12.472;2022-09-09T04:01:13;15.24;81.04
72380;SHT30;60354;47.798;12.472;2022-09-09T04:03:40;15.24;81.16
72380;SHT30;60354;47.798;12.472;2022-09-09T04:06:08;15.25;81.43
72380;SHT30;60354;47.798;12.472;2022-09-09T04:08:34;15.24;81.69
72380;SHT30;60354;47.798;12.472;2022-09-09T04:11:02;15.29;81.30
72380;SHT30;60354;47.798;12.472;2022-09-09T04:13:30;15.26;81.23
72380;SHT30;60354;47.798;12.472;2022-09-09T04:15:59;15.29;81.16
72380;SHT30;60354;47.798;12.472;2022-09-09T04:18:25;15.25;80.52
72380;SHT30;60354;47.798;12.472;2022-09-09T04:20:52;15.18;80.39
72380;SHT30;60354;47.798;12.472;2022-09-09T04:23:21;15.19;80.58
72380;SHT30;60354;47.798;12.472;2022-09-09T04:25:48;15.19;80.81
72380;SHT30;60354;47.798;12.472;2022-09-09T04:28:15;15.18;80.45
72380;SHT30;60354;47.798;12.472;2022-09-09T04:30:42;15.21;79.96
72380;SHT30;60354;47.798;12.472;2022-09-09T04:33:08;15.25;79.34
72380;SHT30;60354;47.798;12.472;2022-09-09T04:35:35;15.26;79.77
72380;SHT30;60354;47.798;12.472;2022-09-09T04:38:01;15.29;79.48
72380;SHT30;60354;47.798;12.472;2022-09-09T04:40:31;15.22;80.12
72380;SHT30;60354;47.798;12.472;2022-09-09T04:42:58;15.25;80.07
72380;SHT30;60354;47.798;12.472;2022-09-09T04:45:24;15.25;80.42
72380;SHT30;60354;47.798;12.472;2022-09-09T04:47:49;15.24;80.79
72380;SHT30;60354;47.798;12.472;2022-09-09T04:50:15;15.22;81.19
72380;SHT30;60354;47.798;12.472;2022-09-09T04:52:45;15.16;81.32
72380;SHT30;60354;47.798;12.472;2022-09-09T04:55:11;15.16;81.62
72380;SHT30;60354;47.798;12.472;2022-09-09T04:57:39;15.21;81.99
72380;SHT30;60354;47.798;12.472;2022-09-09T05:00:05;15.16;81.53
72380;SHT30;60354;47.798;12.472;2022-09-09T05:02:37;15.16;81.45
72380;SHT30;60354;47.798;12.472;2022-09-09T05:05:04;15.21;81.19
72380;SHT30;60354;47.798;12.472;2022-09-09T05:07:30;15.26;81.48
72380;SHT30;60354;47.798;12.472;2022-09-09T05:09:57;15.26;81.39
72380;SHT30;60354;47.798;12.472;2022-09-09T05:12:24;15.26;81.07
72380;SHT30;60354;47.798;12.472;2022-09-09T05:14:52;15.22;81.01
72380;SHT30;60354;47.798;12.472;2022-09-09T05:17:17;15.26;81.05
72380;SHT30;60354;47.798;12.472;2022-09-09T05:19:43;15.31;80.86
72380;SHT30;60354;47.798;12.472;2022-09-09T05:22:10;15.36;80.42
72380;SHT30;60354;47.798;12.472;2022-09-09T05:24:42;15.35;79.99
72380;SHT30;60354;47.798;12.472;2022-09-09T05:27:08;15.35;79.79
72380;SHT30;60354;47.798;12.472;2022-09-09T05:29:38;15.38;79.33
72380;SHT30;60354;47.798;12.472;2022-09-09T05:32:05;15.47;79.49
72380;SHT30;60354;47.798;12.472;2022-09-09T05:34:31;15.49;79.74
72380;SHT30;60354;47.798;12.472;2022-09-09T05:36:57;15.46;79.01
72380;SHT30;60354;47.798;12.472;2022-09-09T05:39:24;15.36;79.11
72380;SHT30;60354;47.798;12.472;2022-09-09T05:41:50;15.34;79.55
72380;SHT30;60354;47.798;12.472;2022-09-09T05:44:16;15.40;79.30
72380;SHT30;60354;47.798;12.472;2022-09-09T05:46:43;15.35;79.52
72380;SHT30;60354;47.798;12.472;2022-09-09T05:49:11;15.31;79.42
72380;SHT30;60354;47.798;12.472;2022-09-09T05:51:38;15.38;78.72
72380;SHT30;60354;47.798;12.472;2022-09-09T05:54:09;15.45;78.45
72380;SHT30;60354;47.798;12.472;2022-09-09T05:56:39;15.47;78.10
72380;SHT30;60354;47.798;12.472;2022-09-09T05:59:06;15.47;78.37
72380;SHT30;60354;47.798;12.472;2022-09-09T06:01:34;15.50;77.92
72380;SHT30;60354;47.798;12.472;2022-09-09T06:04:01;15.49;77.84
72380;SHT30;60354;47.798;12.472;2022-09-09T06:06:36;15.53;77.63
72380;SHT30;60354;47.798;12.472;2022-09-09T06:09:05;15.55;77.72
72380;SHT30;60354;47.798;12.472;2022-09-09T06:11:41;15.65;77.02
72380;SHT30;60354;47.798;12.472;2022-09-09T06:14:07;15.59;77.26
72380;SHT30;60354;47.798;12.472;2022-09-09T06:16:34;15.62;77.90
72380;SHT30;60354;47.798;12.472;2022-09-09T06:19:01;15.63;77.78
72380;SHT30;60354;47.798;12.472;2022-09-09T06:21:36;15.62;78.03
72380;SHT30;60354;47.798;12.472;2022-09-09T06:24:04;15.66;78.04
72380;SHT30;60354;47.798;12.472;2022-09-09T06:26:35;15.60;78.10
72380;SHT30;60354;47.798;12.472;2022-09-09T06:29:02;15.63;77.99
72380;SHT30;60354;47.798;12.472;2022-09-09T06:31:33;15.62;77.92
72380;SHT30;60354;47.798;12.472;2022-09-09T06:34:07;15.65;77.58
72380;SHT30;60354;47.798;12.472;2022-09-09T06:36:36;15.65;77.59
72380;SHT30;60354;47.798;12.472;2022-09-09T06:39:03;15.67;78.03
72380;SHT30;60354;47.798;12.472;2022-09-09T06:41:31;15.67;77.55
72380;SHT30;60354;47.798;12.472;2022-09-09T06:43:57;15.67;78.30
72380;SHT30;60354;47.798;12.472;2022-09-09T06:46:31;15.70;77.34
72380;SHT30;60354;47.798;12.472;2022-09-09T06:48:59;15.74;76.40
72380;SHT30;60354;47.798;12.472;2022-09-09T06:51:27;15.77;76.32
72380;SHT30;60354;47.798;12.472;2022-09-09T06:53:55;15.86;75.95
72380;SHT30;60354;47.798;12.472;2022-09-09T06:56:25;15.83;76.19
72380;SHT30;60354;47.798;12.472;2022-09-09T06:58:55;15.79;76.44
72380;SHT30;60354;47.798;12.472;2022-09-09T07:01:46;15.76;76.84
72380;SHT30;60354;47.798;12.472;2022-09-09T07:04:13;15.83;76.61
72380;SHT30;60354;47.798;12.472;2022-09-09T07:06:44;15.76;76.62
72380;SHT30;60354;47.798;12.472;2022-09-09T07:09:15;15.74;77.09
72380;SHT30;60354;47.798;12.472;2022-09-09T07:11:45;15.74;77.00
72380;SHT30;60354;47.798;12.472;2022-09-09T07:14:12;15.71;76.94
72380;SHT30;60354;47.798;12.472;2022-09-09T07:16:45;15.82;77.14
72380;SHT30;60354;47.798;12.472;2022-09-09T07:19:13;15.91;77.32
72380;SHT30;60354;47.798;12.472;2022-09-09T07:21:41;15.93;76.57
72380;SHT30;60354;47.798;12.472;2022-09-09T07:24:08;16.03;76.31
72380;SHT30;60354;47.798;12.472;2022-09-09T07:26:36;16.08;77.14
72380;SHT30;60354;47.798;12.472;2022-09-09T07:29:02;16.03;76.57
72380;SHT30;60354;47.798;12.472;2022-09-09T07:31:34;15.96;77.04
72380;SHT30;60354;47.798;12.472;2022-09-09T07:34:02;15.98;76.83
72380;SHT30;60354;47.798;12.472;2022-09-09T07:36:33;15.93;77.02
72380;SHT30;60354;47.798;12.472;2022-09-09T07:39:08;15.87;77.93
72380;SHT30;60354;47.798;12.472;2022-09-09T07:41:38;15.80;78.62
72380;SHT30;60354;47.798;12.472;2022-09-09T07:44:07;15.80;78.90
72380;SHT30;60354;47.798;12.472;2022-09-09T07:46:35;15.83;78.25
72380;SHT30;60354;47.798;12.472;2022-09-09T07:49:00;15.96;78.52
72380;SHT30;60354;47.798;12.472;2022-09-09T07:51:34;15.91;78.94
72380;SHT30;60354;47.798;12.472;2022-09-09T07:54:03;15.86;78.86
72380;SHT30;60354;47.798;12.472;2022-09-09T07:56:31;15.79;79.37
72380;SHT30;60354;47.798;12.472;2022-09-09T07:58:58;15.74;79.57
72380;SHT30;60354;47.798;12.472;2022-09-09T08:04:02;15.70;79.70
72380;SHT30;60354;47.798;12.472;2022-09-09T08:06:32;15.63;80.27
72380;SHT30;60354;47.798;12.472;2022-09-09T08:08:59;15.59;80.31
72380;SHT30;60354;47.798;12.472;2022-09-09T08:11:27;15.59;79.85
72380;SHT30;60354;47.798;12.472;2022-09-09T08:13:54;15.56;79.96
72380;SHT30;60354;47.798;12.472;2022-09-09T08:16:23;15.60;80.32
72380;SHT30;60354;47.798;12.472;2022-09-09T08:18:50;15.57;79.51
72380;SHT30;60354;47.798;12.472;2022-09-09T08:21:24;15.62;81.11
72380;SHT30;60354;47.798;12.472;2022-09-09T08:23:52;15.66;80.14
72380;SHT30;60354;47.798;12.472;2022-09-09T08:26:21;15.62;80.69
72380;SHT30;60354;47.798;12.472;2022-09-09T08:28:50;15.60;80.53
72380;SHT30;60354;47.798;12.472;2022-09-09T08:31:20;15.59;80.21
72380;SHT30;60354;47.798;12.472;2022-09-09T08:33:47;15.60;80.39
72380;SHT30;60354;47.798;12.472;2022-09-09T08:36:15;15.56;80.96
72380;SHT30;60354;47.798;12.472;2022-09-09T08:38:49;15.59;80.61
72380;SHT30;60354;47.798;12.472;2022-09-09T08:44:06;15.57;80.43
72380;SHT30;60354;47.798;12.472;2022-09-09T08:49:24;15.66;80.39
72380;SHT30;60354;47.798;12.472;2022-09-09T08:51:58;15.62;80.60
72380;SHT30;60354;47.798;12.472;2022-09-09T08:54:25;15.67;80.42
72380;SHT30;60354;47.798;12.472;2022-09-09T08:56:53;15.69;80.30
72380;SHT30;60354;47.798;12.472;2022-09-09T08:59:19;15.73;79.82
72380;SHT30;60354;47.798;12.472;2022-09-09T09:05:01;15.79;80.14
72380;SHT30;60354;47.798;12.472;2022-09-09T09:12:53;15.76;80.64
72380;SHT30;60354;47.798;12.472;2022-09-09T09:15:26;15.86;79.97
72380;SHT30;60354;47.798;12.472;2022-09-09T09:17:54;15.82;79.88
72380;SHT30;60354;47.798;12.472;2022-09-09T09:20:33;15.85;80.78
72380;SHT30;60354;47.798;12.472;2022-09-09T09:23:04;15.86;80.70
72380;SHT30;60354;47.798;12.472;2022-09-09T09:25:39;15.89;80.71
72380;SHT30;60354;47.798;12.472;2022-09-09T09:28:16;15.85;80.50
72380;SHT30;60354;47.798;12.472;2022-09-09T09:30:56;15.94;80.40
72380;SHT30;60354;47.798;12.472;2022-09-09T09:33:38;15.96;79.58
72380;SHT30;60354;47.798;12.472;2022-09-09T09:36:08;15.93;79.48
72380;SHT30;60354;47.798;12.472;2022-09-09T09:38:36;15.98;79.71
72380;SHT30;60354;47.798;12.472;2022-09-09T09:41:03;16.01;80.92
72380;SHT30;60354;47.798;12.472;2022-09-09T09:43:31;16.04;80.71
72380;SHT30;60354;47.798;12.472;2022-09-09T09:46:00;16.06;80.41
72380;SHT30;60354;47.798;12.472;2022-09-09T09:48:27;16.04;80.96
72380;SHT30;60354;47.798;12.472;2022-09-09T09:53:26;16.20;77.69
72380;SHT30;60354;47.798;12.472;2022-09-09T09:55:58;16.29;78.36
72380;SHT30;60354;47.798;12.472;2022-09-09T09:58:26;16.37;78.86
72380;SHT30;60354;47.798;12.472;2022-09-09T10:00:54;16.32;80.16
72380;SHT30;60354;47.798;12.472;2022-09-09T10:05:55;16.37;82.87
72380;SHT30;60354;47.798;12.472;2022-09-09T10:08:25;16.32;84.29
72380;SHT30;60354;47.798;12.472;2022-09-09T10:19:04;16.24;84.93
72380;SHT30;60354;47.798;12.472;2022-09-09T10:27:49;16.56;84.49
72380;SHT30;60354;47.798;12.472;2022-09-09T10:30:22;16.65;83.62
72380;SHT30;60354;47.798;12.472;2022-09-09T10:33:10;16.59;83.25
72380;SHT30;60354;47.798;12.472;2022-09-09T10:38:45;16.76;81.32
72380;SHT30;60354;47.798;12.472;2022-09-09T10:50:02;17.03;79.79
72380;SHT30;60354;47.798;12.472;2022-09-09T10:52:40;16.95;79.91
72380;SHT30;60354;47.798;12.472;2022-09-09T10:55:20;16.99;80.13
72380;SHT30;60354;47.798;12.472;2022-09-09T10:57:51;17.00;80.97
72380;SHT30;60354;47.798;12.472;2022-09-09T11:00:22;17.00;80.35
72380;SHT30;60354;47.798;12.472;2022-09-09T11:02:57;16.92;81.17
72380;SHT30;60354;47.798;12.472;2022-09-09T11:05:31;16.89;81.01
72380;SHT30;60354;47.798;12.472;2022-09-09T11:08:10;16.87;80.96
72380;SHT30;60354;47.798;12.472;2022-09-09T11:13:29;16.83;83.30
72380;SHT30;60354;47.798;12.472;2022-09-09T11:16:01;16.85;84.26
72380;SHT30;60354;47.798;12.472;2022-09-09T11:18:31;16.82;83.46
72380;SHT30;60354;47.798;12.472;2022-09-09T11:21:03;16.75;83.77
72380;SHT30;60354;47.798;12.472;2022-09-09T11:26:04;16.82;85.61
72380;SHT30;60354;47.798;12.472;2022-09-09T11:28:51;16.87;83.57
72380;SHT30;60354;47.798;12.472;2022-09-09T11:40:24;16.90;83.01
72380;SHT30;60354;47.798;12.472;2022-09-09T11:43:02;16.89;82.96
72380;SHT30;60354;47.798;12.472;2022-09-09T11:45:31;16.93;84.48
72380;SHT30;60354;47.798;12.472;2022-09-09T11:48:00;16.93;83.03
72380;SHT30;60354;47.798;12.472;2022-09-09T11:55:34;17.09;82.56
72380;SHT30;60354;47.798;12.472;2022-09-09T12:03:03;17.23;82.03
72380;SHT30;60354;47.798;12.472;2022-09-09T12:05:42;17.19;81.54
72380;SHT30;60354;47.798;12.472;2022-09-09T12:08:18;17.27;83.08
72380;SHT30;60354;47.798;12.472;2022-09-09T12:10:58;17.13;81.54
72380;SHT30;60354;47.798;12.472;2022-09-09T12:13:28;17.10;82.72
72380;SHT30;60354;47.798;12.472;2022-09-09T12:15:58;17.23;84.06
72380;SHT30;60354;47.798;12.472;2022-09-09T12:23:58;17.36;82.28
72380;SHT30;60354;47.798;12.472;2022-09-09T12:26:53;17.36;81.23
72380;SHT30;60354;47.798;12.472;2022-09-09T12:32:13;17.51;80.09
72380;SHT30;60354;47.798;12.472;2022-09-09T12:34:55;17.48;79.38
72380;SHT30;60354;47.798;12.472;2022-09-09T12:40:19;17.53;79.81
72380;SHT30;60354;47.798;12.472;2022-09-09T12:42:45;17.57;80.24
72380;SHT30;60354;47.798;12.472;2022-09-09T12:47:50;17.64;78.43
72380;SHT30;60354;47.798;12.472;2022-09-09T12:50:21;17.61;80.23
72380;SHT30;60354;47.798;12.472;2022-09-09T12:52:48;17.67;80.66
72380;SHT30;60354;47.798;12.472;2022-09-09T12:55:21;17.68;80.50
72380;SHT30;60354;47.798;12.472;2022-09-09T12:57:48;17.63;78.96
72380;SHT30;60354;47.798;12.472;2022-09-09T13:02:48;17.66;80.11
72380;SHT30;60354;47.798;12.472;2022-09-09T13:05:28;17.71;80.15
72380;SHT30;60354;47.798;12.472;2022-09-09T13:08:09;17.67;79.90
72380;SHT30;60354;47.798;12.472;2022-09-09T13:10:56;17.61;79.16
72380;SHT30;60354;47.798;12.472;2022-09-09T13:13:35;17.67;80.02
72380;SHT30;60354;47.798;12.472;2022-09-09T13:16:02;17.75;79.90
72380;SHT30;60354;47.798;12.472;2022-09-09T13:18:35;17.75;80.23
72380;SHT30;60354;47.798;12.472;2022-09-09T13:21:01;17.78;80.73
72380;SHT30;60354;47.798;12.472;2022-09-09T13:23:30;17.82;80.22
72380;SHT30;60354;47.798;12.472;2022-09-09T13:26:00;17.85;78.94
72380;SHT30;60354;47.798;12.472;2022-09-09T13:28:28;17.91;79.52
72380;SHT30;60354;47.798;12.472;2022-09-09T13:31:03;17.91;79.97
72380;SHT30;60354;47.798;12.472;2022-09-09T13:33:35;17.95;80.62
72380;SHT30;60354;47.798;12.472;2022-09-09T13:36:05;17.99;80.13
72380;SHT30;60354;47.798;12.472;2022-09-09T13:41:25;17.91;81.07
72380;SHT30;60354;47.798;12.472;2022-09-09T13:43:52;17.95;80.88
72380;SHT30;60354;47.798;12.472;2022-09-09T13:46:40;17.89;81.17
72380;SHT30;60354;47.798;12.472;2022-09-09T13:51:45;18.02;80.99
72380;SHT30;60354;47.798;12.472;2022-09-09T13:54:13;17.99;80.57
72380;SHT30;60354;47.798;12.472;2022-09-09T13:56:40;18.04;80.78
72380;SHT30;60354;47.798;12.472;2022-09-09T13:59:10;18.04;80.85
72380;SHT30;60354;47.798;12.472;2022-09-09T14:01:36;18.01;79.58
72380;SHT30;60354;47.798;12.472;2022-09-09T14:04:03;18.08;80.57
72380;SHT30;60354;47.798;12.472;2022-09-09T14:06:29;18.15;79.82
72380;SHT30;60354;47.798;12.472;2022-09-09T14:08:54;18.04;77.32
72380;SHT30;60354;47.798;12.472;2022-09-09T14:11:20;18.06;77.57
72380;SHT30;60354;47.798;12.472;2022-09-09T14:13:47;18.02;76.32
72380;SHT30;60354;47.798;12.472;2022-09-09T14:16:18;17.99;75.95
72380;SHT30;60354;47.798;12.472;2022-09-09T14:18:45;18.04;76.39
72380;SHT30;60354;47.798;12.472;2022-09-09T14:21:11;18.05;76.62
72380;SHT30;60354;47.798;12.472;2022-09-09T14:23:37;18.13;77.20
72380;SHT30;60354;47.798;12.472;2022-09-09T14:26:07;18.12;76.22
72380;SHT30;60354;47.798;12.472;2022-09-09T14:28:33;18.18;76.38
72380;SHT30;60354;47.798;12.472;2022-09-09T14:31:00;18.13;75.46
72380;SHT30;60354;47.798;12.472;2022-09-09T14:33:27;18.08;75.06
72380;SHT30;60354;47.798;12.472;2022-09-09T14:36:02;18.12;75.22
72380;SHT30;60354;47.798;12.472;2022-09-09T14:38:33;18.08;75.21
72380;SHT30;60354;47.798;12.472;2022-09-09T14:41:00;17.99;73.51
72380;SHT30;60354;47.798;12.472;2022-09-09T14:43:29;17.92;73.30
72380;SHT30;60354;47.798;12.472;2022-09-09T14:45:55;17.91;74.22
72380;SHT30;60354;47.798;12.472;2022-09-09T14:48:21;17.91;74.63
72380;SHT30;60354;47.798;12.472;2022-09-09T14:50:46;17.89;75.15
72380;SHT30;60354;47.798;12.472;2022-09-09T14:53:12;17.84;74.13
72380;SHT30;60354;47.798;12.472;2022-09-09T14:55:38;17.84;74.43
72380;SHT30;60354;47.798;12.472;2022-09-09T14:58:04;17.74;72.82
72380;SHT30;60354;47.798;12.472;2022-09-09T15:00:34;17.66;74.00
72380;SHT30;60354;47.798;12.472;2022-09-09T15:02:59;17.67;74.67
72380;SHT30;60354;47.798;12.472;2022-09-09T15:05:25;17.71;73.49
72380;SHT30;60354;47.798;12.472;2022-09-09T15:07:50;17.64;73.43
72380;SHT30;60354;47.798;12.472;2022-09-09T15:10:16;17.55;72.84
72380;SHT30;60354;47.798;12.472;2022-09-09T15:12:43;17.53;72.86
72380;SHT30;60354;47.798;12.472;2022-09-09T15:15:09;17.47;72.95
72380;SHT30;60354;47.798;12.472;2022-09-09T15:17:35;17.50;71.30
72380;SHT30;60354;47.798;12.472;2022-09-09T15:20:03;17.54;69.42
72380;SHT30;60354;47.798;12.472;2022-09-09T15:22:30;17.61;69.95
72380;SHT30;60354;47.798;12.472;2022-09-09T15:24:55;17.66;70.75
72380;SHT30;60354;47.798;12.472;2022-09-09T15:27:21;17.57;70.86
72380;SHT30;60354;47.798;12.472;2022-09-09T15:29:46;17.54;70.59
72380;SHT30;60354;47.798;12.472;2022-09-09T15:32:12;17.55;69.96
72380;SHT30;60354;47.798;12.472;2022-09-09T15:34:38;17.55;70.74
72380;SHT30;60354;47.798;12.472;2022-09-09T15:37:03;17.55;71.82
72380;SHT30;60354;47.798;12.472;2022-09-09T15:39:29;17.51;72.19
72380;SHT30;60354;47.798;12.472;2022-09-09T15:41:54;17.53;72.28
72380;SHT30;60354;47.798;12.472;2022-09-09T15:44:20;17.44;72.73
72380;SHT30;60354;47.798;12.472;2022-09-09T15:46:49;17.46;72.54
72380;SHT30;60354;47.798;12.472;2022-09-09T15:49:18;17.43;72.88
72380;SHT30;60354;47.798;12.472;2022-09-09T15:51:56;17.37;72.72
72380;SHT30;60354;47.798;12.472;2022-09-09T15:54:24;17.28;72.59
72380;SHT30;60354;47.798;12.472;2022-09-09T15:56:57;17.26;72.09
72380;SHT30;60354;47.798;12.472;2022-09-09T15:59:25;17.24;72.32
72380;SHT30;60354;47.798;12.472;2022-09-09T16:01:51;17.26;72.95
72380;SHT30;60354;47.798;12.472;2022-09-09T16:04:18;17.23;73.03
72380;SHT30;60354;47.798;12.472;2022-09-09T16:07:01;17.23;73.37
72380;SHT30;60354;47.798;12.472;2022-09-09T16:09:29;17.24;73.33
72380;SHT30;60354;47.798;12.472;2022-09-09T16:11:59;17.20;73.59
72380;SHT30;60354;47.798;12.472;2022-09-09T16:14:26;17.09;73.66
72380;SHT30;60354;47.798;12.472;2022-09-09T16:16:52;17.03;73.60
72380;SHT30;60354;47.798;12.472;2022-09-09T16:19:18;17.03;73.36
72380;SHT30;60354;47.798;12.472;2022-09-09T16:21:46;17.00;73.44
72380;SHT30;60354;47.798;12.472;2022-09-09T16:24:15;17.03;73.50
72380;SHT30;60354;47.798;12.472;2022-09-09T16:26:42;16.99;73.23
72380;SHT30;60354;47.798;12.472;2022-09-09T16:29:11;16.95;73.41
72380;SHT30;60354;47.798;12.472;2022-09-09T16:31:37;16.97;73.89
72380;SHT30;60354;47.798;12.472;2022-09-09T16:34:03;17.03;74.00
72380;SHT30;60354;47.798;12.472;2022-09-09T16:36:30;16.99;73.64
72380;SHT30;60354;47.798;12.472;2022-09-09T16:39:03;17.06;73.58
72380;SHT30;60354;47.798;12.472;2022-09-09T16:41:31;16.99;73.81
72380;SHT30;60354;47.798;12.472;2022-09-09T16:43:58;16.92;73.98
72380;SHT30;60354;47.798;12.472;2022-09-09T16:46:25;16.90;74.00
72380;SHT30;60354;47.798;12.472;2022-09-09T16:48:53;16.86;74.00
72380;SHT30;60354;47.798;12.472;2022-09-09T16:51:22;16.82;73.70
72380;SHT30;60354;47.798;12.472;2022-09-09T16:53:49;16.78;73.66
72380;SHT30;60354;47.798;12.472;2022-09-09T16:56:21;16.79;74.29
72380;SHT30;60354;47.798;12.472;2022-09-09T16:58:54;16.78;74.05
72380;SHT30;60354;47.798;12.472;2022-09-09T17:01:25;16.75;74.20
72380;SHT30;60354;47.798;12.472;2022-09-09T17:04:00;16.71;73.99
72380;SHT30;60354;47.798;12.472;2022-09-09T17:06:29;16.75;74.86
72380;SHT30;60354;47.798;12.472;2022-09-09T17:09:00;16.75;75.16
72380;SHT30;60354;47.798;12.472;2022-09-09T17:11:29;16.69;74.44
72380;SHT30;60354;47.798;12.472;2022-09-09T17:13:56;16.72;74.34
72380;SHT30;60354;47.798;12.472;2022-09-09T17:16:25;16.65;74.24
72380;SHT30;60354;47.798;12.472;2022-09-09T17:18:53;16.61;73.60
72380;SHT30;60354;47.798;12.472;2022-09-09T17:21:21;16.61;73.49
72380;SHT30;60354;47.798;12.472;2022-09-09T17:23:47;16.61;73.69
72380;SHT30;60354;47.798;12.472;2022-09-09T17:26:15;16.61;74.19
72380;SHT30;60354;47.798;12.472;2022-09-09T17:28:42;16.55;73.98
72380;SHT30;60354;47.798;12.472;2022-09-09T17:31:09;16.51;73.66
72380;SHT30;60354;47.798;12.472;2022-09-09T17:33:37;16.54;73.79
72380;SHT30;60354;47.798;12.472;2022-09-09T17:36:09;16.54;74.45
72380;SHT30;60354;47.798;12.472;2022-09-09T17:38:35;16.52;74.23
72380;SHT30;60354;47.798;12.472;2022-09-09T17:41:19;16.52;74.46
72380;SHT30;60354;47.798;12.472;2022-09-09T17:43:45;16.47;74.49
72380;SHT30;60354;47.798;12.472;2022-09-09T17:46:19;16.41;74.77
72380;SHT30;60354;47.798;12.472;2022-09-09T17:48:47;16.37;74.77
72380;SHT30;60354;47.798;12.472;2022-09-09T17:51:15;16.35;75.11
72380;SHT30;60354;47.798;12.472;2022-09-09T17:53:47;16.31;75.43